Time;durP1;ratioP1;P1;durP2;ratioP2;P2;SDS_P1;SDS_P2;PMS_P1;PMS_P2;Temp;Humidity;BMP_temperature;BMP_pressure;BME280_temperature;BME280_humidity;BME280_pressure;Samples;Min_cycle;Max_cycle;Signal;HPM_P1;HPM_P2
2022/03/11 00:02:02;;;;;;;8.93;6.50;;;9.90;96.50;;;;;;5090356;28;20162;-79
2022/03/11 00:04:27;;;;;;;13.20;7.93;;;9.90;96.50;;;;;;5077896;28;20650;-83
2022/03/11 00:06:53;;;;;;;12.80;6.65;;;9.90;96.50;;;;;;5074019;28;20276;-84
2022/03/11 00:09:18;;;;;;;16.83;7.63;;;9.90;96.40;;;;;;5074093;28;20176;-78
2022/03/11 00:11:44;;;;;;;11.00;7.60;;;9.90;96.50;;;;;;5077489;28;20163;-82
2022/03/11 00:14:10;;;;;;;10.10;7.28;;;9.80;96.60;;;;;;5077408;28;20198;-78
2022/03/11 00:16:35;;;;;;;11.23;7.75;;;9.90;96.40;;;;;;5078111;28;20198;-80
2022/03/11 00:19:01;;;;;;;10.05;6.60;;;9.80;96.60;;;;;;5077193;28;20213;-79
2022/03/11 00:21:26;;;;;;;10.63;6.97;;;9.80;96.60;;;;;;5076926;28;20244;-79
2022/03/11 00:23:52;;;;;;;10.32;6.15;;;9.80;96.40;;;;;;5077020;28;20257;-79
2022/03/11 00:26:18;;;;;;;9.27;6.18;;;9.90;96.20;;;;;;5077341;28;20197;-85
2022/03/11 00:28:44;;;;;;;6.13;5.43;;;9.90;96.20;;;;;;5079087;28;20181;-78
2022/03/11 00:31:11;;;;;;;6.68;5.80;;;9.90;96.20;;;;;;5081372;28;20180;-80
2022/03/11 00:33:36;;;;;;;11.07;6.15;;;9.80;96.40;;;;;;5067653;28;20170;-79
2022/03/11 00:36:02;;;;;;;9.27;6.75;;;9.80;96.20;;;;;;5085327;28;20193;-78
2022/03/11 00:38:28;;;;;;;8.30;6.05;;;9.80;96.30;;;;;;5090747;28;20257;-79
2022/03/11 00:40:59;;;;;;;10.45;6.20;;;9.70;96.30;;;;;;5067177;28;20197;-79
2022/03/11 00:43:26;;;;;;;7.30;5.35;;;9.80;96.20;;;;;;5069554;28;20174;-79
2022/03/11 00:45:52;;;;;;;9.30;5.70;;;9.80;96.20;;;;;;5090462;28;20194;-78
2022/03/11 00:48:18;;;;;;;6.43;5.00;;;9.80;96.10;;;;;;5089588;28;20184;-79
2022/03/11 00:50:44;;;;;;;6.93;5.55;;;9.80;96.10;;;;;;5092444;28;20163;-80
2022/03/11 00:53:10;;;;;;;6.13;4.40;;;9.80;96.10;;;;;;5096175;28;20181;-81
2022/03/11 00:55:36;;;;;;;8.40;4.78;;;9.80;96.10;;;;;;5088589;28;20206;-79
2022/03/11 00:58:01;;;;;;;6.75;5.60;;;9.70;96.50;;;;;;5069718;28;20195;-80
2022/03/11 01:00:27;;;;;;;13.63;5.57;;;9.70;96.80;;;;;;5067558;28;20182;-78
2022/03/11 01:02:54;;;;;;;8.13;6.75;;;9.50;97.10;;;;;;5087117;28;20167;-81
2022/03/11 01:05:23;;;;;;;11.13;5.68;;;9.40;97.40;;;;;;5089551;28;20193;-82
2022/03/11 01:07:52;;;;;;;14.60;6.45;;;9.50;97.20;;;;;;5073498;28;20159;-78
2022/03/11 01:10:19;;;;;;;7.78;5.55;;;9.40;97.30;;;;;;5090587;28;20205;-84
2022/03/11 01:12:45;;;;;;;9.77;5.72;;;9.40;97.40;;;;;;5086684;28;20760;-79
2022/03/11 01:15:11;;;;;;;9.20;5.53;;;9.30;97.60;;;;;;5086482;28;20265;-82
2022/03/11 01:17:38;;;;;;;8.20;5.75;;;9.40;97.50;;;;;;5068620;28;20279;-82
2022/03/11 01:20:07;;;;;;;9.05;5.93;;;9.50;97.40;;;;;;5086635;28;20201;-80
2022/03/11 01:22:33;;;;;;;9.27;5.50;;;9.40;97.60;;;;;;5067325;28;20242;-82
2022/03/11 01:24:59;;;;;;;7.97;4.93;;;9.40;97.30;;;;;;5089636;28;20173;-79
2022/03/11 01:27:25;;;;;;;9.20;5.20;;;9.40;97.30;;;;;;5091850;28;20174;-80
2022/03/11 01:29:51;;;;;;;9.82;5.82;;;9.20;97.70;;;;;;5070013;28;20174;-83
2022/03/11 01:32:17;;;;;;;6.93;5.15;;;9.20;97.70;;;;;;5064251;28;20185;-78
2022/03/11 01:34:43;;;;;;;8.60;5.82;;;9.10;97.90;;;;;;5086707;28;20167;-79
2022/03/11 01:37:10;;;;;;;7.38;5.45;;;9.10;97.80;;;;;;5072800;28;20186;-80
2022/03/11 01:39:36;;;;;;;6.40;5.20;;;9.20;97.80;;;;;;5089950;28;20202;-78
2022/03/11 01:42:03;;;;;;;9.13;5.57;;;9.10;97.70;;;;;;5092894;28;20171;-78
2022/03/11 01:44:29;;;;;;;11.43;6.15;;;9.00;97.90;;;;;;5092031;28;20615;-82
2022/03/11 01:46:56;;;;;;;7.50;5.10;;;9.10;98.00;;;;;;5074455;28;20204;-78
2022/03/11 01:49:22;;;;;;;6.07;5.10;;;9.10;97.90;;;;;;5093218;28;20246;-83
2022/03/11 01:51:49;;;;;;;7.43;5.57;;;9.30;97.60;;;;;;5074829;28;20576;-78
2022/03/11 01:54:15;;;;;;;8.07;5.70;;;9.30;97.60;;;;;;5094249;28;20218;-79
2022/03/11 01:56:41;;;;;;;6.13;4.72;;;9.20;97.60;;;;;;5089889;28;20183;-83
2022/03/11 01:59:08;;;;;;;11.15;5.00;;;9.00;97.90;;;;;;5086864;28;20293;-85
2022/03/11 02:01:34;;;;;;;7.00;5.47;;;8.90;98.10;;;;;;5056981;28;20180;-83
2022/03/11 02:04:00;;;;;;;5.90;4.28;;;9.00;97.90;;;;;;5089410;28;20194;-84
2022/03/11 02:06:26;;;;;;;7.18;5.28;;;9.00;97.70;;;;;;5090893;28;20230;-80
2022/03/11 02:08:55;;;;;;;11.23;5.45;;;9.00;97.70;;;;;;5056178;28;20178;-83
2022/03/11 02:11:21;;;;;;;6.13;4.93;;;9.00;97.80;;;;;;5086700;28;20150;-79
2022/03/11 02:14:00;;;;;;;7.38;5.25;;;9.10;97.60;;;;;;5090223;28;20186;-85
2022/03/11 02:16:30;;;;;;;6.43;5.03;;;9.10;97.60;;;;;;5072902;28;20186;-85
2022/03/11 02:18:56;;;;;;;7.22;5.80;;;9.00;97.70;;;;;;5058298;28;20218;-84
2022/03/11 02:21:27;;;;;;;6.82;5.28;;;8.90;97.80;;;;;;5094191;28;20172;-84
2022/03/11 02:23:55;;;;;;;6.00;4.60;;;8.80;97.80;;;;;;5079612;28;20635;-79
2022/03/11 02:26:23;;;;;;;6.35;5.18;;;8.80;98.00;;;;;;5075116;28;20182;-79
2022/03/11 02:28:50;;;;;;;8.32;5.32;;;8.90;97.80;;;;;;5082823;28;20263;-79
2022/03/11 02:31:18;;;;;;;8.48;6.32;;;8.90;97.70;;;;;;5079480;28;20169;-78
2022/03/11 02:33:57;;;;;;;17.00;4.50;;;8.80;97.80;;;;;;5072469;28;20163;-78
2022/03/11 02:36:24;;;;;;;7.50;4.72;;;8.90;97.80;;;;;;5088669;28;20182;-79
2022/03/11 02:38:50;;;;;;;5.72;4.75;;;8.90;97.50;;;;;;5082926;28;20249;-80
2022/03/11 02:41:16;;;;;;;7.57;4.55;;;8.80;97.60;;;;;;5081607;28;20166;-79
2022/03/11 02:43:42;;;;;;;7.53;5.53;;;8.80;97.70;;;;;;5080594;28;20170;-84
2022/03/11 02:46:08;;;;;;;7.75;4.47;;;8.70;97.80;;;;;;5064455;28;20194;-83
2022/03/11 02:48:34;;;;;;;6.55;4.65;;;8.80;97.80;;;;;;5064551;28;20536;-85
2022/03/11 02:51:00;;;;;;;16.17;4.75;;;8.70;97.80;;;;;;5082139;28;20163;-82
2022/03/11 02:53:27;;;;;;;5.65;4.63;;;8.60;98.00;;;;;;5081492;28;20220;-83
2022/03/11 02:55:52;;;;;;;5.68;4.70;;;8.50;98.00;;;;;;5082674;28;20202;-79
2022/03/11 02:58:19;;;;;;;11.10;5.53;;;8.40;98.20;;;;;;5062993;28;20674;-84
2022/03/11 03:00:45;;;;;;;5.75;5.10;;;8.40;98.40;;;;;;5080778;28;20298;-80
2022/03/11 03:03:10;;;;;;;5.70;4.95;;;8.50;98.30;;;;;;5079842;28;20177;-79
2022/03/11 03:05:36;;;;;;;6.53;5.10;;;8.50;98.20;;;;;;5069011;28;20193;-78
2022/03/11 03:08:02;;;;;;;13.52;4.75;;;8.50;98.10;;;;;;5085512;28;20162;-86
2022/03/11 03:10:27;;;;;;;6.05;5.00;;;8.70;97.70;;;;;;5080734;28;20174;-77
2022/03/11 03:12:53;;;;;;;6.50;5.30;;;8.60;97.90;;;;;;5079900;28;20185;-80
2022/03/11 03:15:19;;;;;;;8.88;4.95;;;8.50;98.00;;;;;;5057380;28;20206;-78
2022/03/11 03:17:45;;;;;;;16.52;5.00;;;8.30;98.00;;;;;;5073776;28;20209;-81
2022/03/11 03:20:11;;;;;;;13.27;4.82;;;8.10;98.50;;;;;;5074141;28;20496;-79
2022/03/11 03:22:37;;;;;;;5.72;4.88;;;8.10;98.40;;;;;;5073903;28;20186;-83
2022/03/11 03:25:04;;;;;;;9.30;4.57;;;8.10;98.50;;;;;;5056095;28;20162;-84
2022/03/11 03:27:29;;;;;;;7.68;4.78;;;8.10;98.80;;;;;;5073887;28;20197;-82
2022/03/11 03:29:55;;;;;;;7.78;4.93;;;8.10;98.50;;;;;;5073966;28;20174;-83
2022/03/11 03:32:21;;;;;;;19.58;5.57;;;8.00;98.50;;;;;;5074149;28;20171;-84
2022/03/11 03:34:47;;;;;;;7.43;5.35;;;8.10;98.30;;;;;;5073633;28;20163;-85
2022/03/11 03:37:13;;;;;;;11.45;5.47;;;7.90;98.50;;;;;;5074379;28;20245;-84
2022/03/11 03:39:41;;;;;;;9.07;5.25;;;7.70;98.50;;;;;;5076130;28;20278;-83
2022/03/11 03:42:07;;;;;;;4.95;4.28;;;7.90;98.10;;;;;;5081977;28;20159;-79
2022/03/11 03:44:33;;;;;;;5.10;4.05;;;8.10;98.00;;;;;;5093662;28;20191;-77
2022/03/11 03:46:59;;;;;;;8.55;4.53;;;8.10;97.90;;;;;;5082129;28;20197;-80
2022/03/11 03:49:25;;;;;;;5.95;4.68;;;8.10;97.80;;;;;;5058719;28;20166;-84
2022/03/11 03:51:51;;;;;;;9.10;5.18;;;8.10;97.70;;;;;;5055900;28;20170;-78
2022/03/11 03:54:17;;;;;;;5.55;5.03;;;8.10;97.60;;;;;;5074890;28;20170;-77
2022/03/11 03:56:44;;;;;;;5.72;4.50;;;8.10;97.50;;;;;;5073872;28;20181;-81
2022/03/11 03:59:11;;;;;;;6.63;4.63;;;8.10;97.50;;;;;;5073766;28;20206;-82
2022/03/11 04:01:39;;;;;;;5.95;4.47;;;8.10;97.50;;;;;;5073975;28;20167;-79
2022/03/11 04:04:05;;;;;;;6.57;4.93;;;8.30;97.30;;;;;;5073954;28;20686;-84
2022/03/11 04:06:32;;;;;;;8.80;5.40;;;8.40;97.20;;;;;;5082402;28;20204;-84
2022/03/11 04:08:59;;;;;;;5.55;4.75;;;8.40;97.30;;;;;;5088381;28;20734;-81
2022/03/11 04:11:25;;;;;;;9.85;5.03;;;8.20;97.30;;;;;;5088395;28;20169;-80
2022/03/11 04:13:51;;;;;;;9.85;5.45;;;8.10;97.30;;;;;;5084618;28;20170;-78
2022/03/11 04:16:18;;;;;;;7.57;4.75;;;8.20;97.10;;;;;;5073482;28;20247;-78
2022/03/11 04:18:45;;;;;;;7.43;4.90;;;8.30;97.00;;;;;;5072920;28;20594;-81
2022/03/11 04:21:11;;;;;;;6.72;4.68;;;8.40;97.00;;;;;;5055837;28;20190;-84
2022/03/11 04:23:36;;;;;;;6.57;4.65;;;8.30;97.10;;;;;;5080450;28;20253;-80
2022/03/11 04:26:03;;;;;;;6.03;4.70;;;8.20;97.20;;;;;;5078553;28;20614;-85
2022/03/11 04:28:28;;;;;;;13.65;5.57;;;8.30;97.20;;;;;;5078451;28;20182;-82
2022/03/11 04:30:54;;;;;;;7.57;5.88;;;8.40;96.80;;;;;;5077969;28;20163;-84
2022/03/11 04:33:21;;;;;;;8.10;4.35;;;8.50;96.80;;;;;;5068993;28;20182;-78
2022/03/11 04:35:47;;;;;;;8.30;6.15;;;8.50;96.70;;;;;;5078867;28;20266;-79
2022/03/11 04:38:13;;;;;;;6.18;4.43;;;8.50;97.10;;;;;;5063485;28;20298;-80
2022/03/11 04:40:42;;;;;;;6.22;4.70;;;8.40;96.90;;;;;;5077658;28;20230;-79
2022/03/11 04:43:07;;;;;;;11.68;5.95;;;8.30;97.00;;;;;;5076533;28;20186;-81
2022/03/11 04:45:33;;;;;;;9.38;5.20;;;8.40;97.00;;;;;;5078509;28;20666;-85
2022/03/11 04:47:58;;;;;;;7.80;5.25;;;8.50;96.80;;;;;;5077038;28;20190;-85
2022/03/11 04:50:25;;;;;;;10.23;4.65;;;8.50;96.80;;;;;;5073119;28;20162;-78
2022/03/11 04:52:52;;;;;;;9.02;5.15;;;8.50;96.80;;;;;;5083533;28;20163;-83
2022/03/11 04:55:17;;;;;;;18.75;6.60;;;8.50;96.70;;;;;;5070708;28;20643;-78
2022/03/11 04:57:44;;;;;;;6.80;5.93;;;8.50;96.70;;;;;;5084413;28;20181;-78
2022/03/11 05:00:11;;;;;;;12.25;6.10;;;8.60;96.70;;;;;;5087028;28;20191;-80
2022/03/11 05:02:44;;;;;;;8.30;5.47;;;8.60;96.80;;;;;;5088029;28;20174;-81
2022/03/11 05:05:14;;;;;;;7.93;4.95;;;8.40;97.10;;;;;;5080561;28;20225;-82
2022/03/11 05:07:41;;;;;;;8.57;5.93;;;8.40;97.10;;;;;;5081636;28;20196;-78
2022/03/11 05:10:08;;;;;;;8.23;5.72;;;8.50;97.10;;;;;;5061617;28;20167;-79
2022/03/11 05:12:37;;;;;;;10.73;5.88;;;8.50;97.00;;;;;;5079743;28;20166;-77
2022/03/11 05:15:05;;;;;;;7.72;6.05;;;8.60;97.00;;;;;;5076533;28;20650;-80
2022/03/11 05:17:31;;;;;;;11.82;6.00;;;8.40;97.20;;;;;;5081138;28;20192;-78
2022/03/11 05:19:57;;;;;;;10.48;6.35;;;8.30;97.50;;;;;;5062054;28;20171;-84
2022/03/11 05:22:24;;;;;;;6.90;5.13;;;8.40;97.30;;;;;;5063660;28;20170;-77
2022/03/11 05:24:50;;;;;;;6.40;5.32;;;8.60;97.20;;;;;;5080289;28;20174;-78
2022/03/11 05:27:16;;;;;;;6.50;5.70;;;8.50;97.30;;;;;;5078183;28;20166;-80
2022/03/11 05:29:44;;;;;;;7.57;4.85;;;8.50;97.40;;;;;;5086740;28;20249;-78
2022/03/11 05:32:10;;;;;;;22.42;6.68;;;8.60;97.40;;;;;;5079850;28;20714;-79
2022/03/11 05:34:42;;;;;;;9.35;5.22;;;8.40;97.60;;;;;;5061843;28;20200;-81
2022/03/11 05:37:09;;;;;;;8.93;5.03;;;8.40;97.80;;;;;;5084400;28;20185;-79
2022/03/11 05:39:36;;;;;;;9.43;6.30;;;8.20;97.90;;;;;;5065228;28;20359;-80
2022/03/11 05:42:02;;;;;;;8.20;6.10;;;8.40;97.90;;;;;;5082757;28;20209;-79
2022/03/11 05:44:30;;;;;;;11.02;5.70;;;8.30;98.00;;;;;;5084706;28;20657;-80
2022/03/11 05:46:56;;;;;;;8.75;5.20;;;8.30;98.10;;;;;;5078818;28;20182;-79
2022/03/11 05:49:22;;;;;;;14.20;5.93;;;8.40;98.10;;;;;;5075654;28;20253;-78
2022/03/11 05:51:48;;;;;;;8.32;6.82;;;8.40;98.20;;;;;;5063368;28;20186;-81
2022/03/11 05:54:14;;;;;;;7.78;5.88;;;8.40;98.40;;;;;;5040919;28;20599;-77
2022/03/11 05:56:39;;;;;;;7.25;5.65;;;8.30;98.30;;;;;;5057609;28;20222;-80
2022/03/11 05:59:05;;;;;;;6.72;5.38;;;8.30;98.40;;;;;;5075168;28;20213;-78
2022/03/11 06:01:32;;;;;;;11.90;5.72;;;8.20;98.50;;;;;;5075549;28;20163;-79
2022/03/11 06:03:57;;;;;;;10.80;6.05;;;8.30;98.50;;;;;;5075026;28;20179;-81
2022/03/11 06:06:23;;;;;;;7.82;6.72;;;8.30;98.60;;;;;;5075080;28;20186;-81
2022/03/11 06:08:49;;;;;;;6.47;4.97;;;8.30;98.50;;;;;;5074683;28;20239;-77
2022/03/11 06:11:14;;;;;;;13.27;5.93;;;8.20;98.70;;;;;;5075215;28;20163;-77
2022/03/11 06:13:40;;;;;;;9.75;5.43;;;8.30;98.80;;;;;;5074927;28;20162;-79
2022/03/11 06:16:05;;;;;;;10.88;5.82;;;8.20;98.80;;;;;;5074345;28;20192;-78
2022/03/11 06:18:31;;;;;;;7.05;5.72;;;8.20;99.00;;;;;;5074287;28;20202;-81
2022/03/11 06:20:57;;;;;;;10.45;5.53;;;8.40;98.80;;;;;;5074552;28;20167;-79
2022/03/11 06:23:23;;;;;;;8.88;5.63;;;8.30;98.90;;;;;;5074473;28;20209;-81
2022/03/11 06:25:49;;;;;;;9.10;5.95;;;8.40;99.10;;;;;;5074672;28;20666;-78
2022/03/11 06:28:15;;;;;;;10.70;6.20;;;8.20;99.40;;;;;;5074113;28;20166;-80
2022/03/11 06:30:41;;;;;;;14.23;6.60;;;8.30;99.60;;;;;;5074332;28;20615;-82
2022/03/11 06:33:07;;;;;;;27.85;7.60;;;8.40;99.60;;;;;;5074353;28;20175;-78
2022/03/11 06:35:33;;;;;;;29.70;7.15;;;8.30;99.60;;;;;;5073798;28;20190;-79
2022/03/11 06:37:59;;;;;;;15.80;6.03;;;8.30;99.90;;;;;;5074222;28;21103;-77
2022/03/11 06:40:24;;;;;;;87.28;12.35;;;8.40;99.90;;;;;;5074170;28;20201;-82
2022/03/11 06:42:50;;;;;;;37.25;8.25;;;8.50;99.90;;;;;;5074286;28;20170;-78
2022/03/11 06:45:17;;;;;;;23.92;6.60;;;8.60;99.90;;;;;;5074168;28;20182;-85
2022/03/11 06:47:46;;;;;;;16.08;7.13;;;8.60;99.90;;;;;;5056136;28;20166;-82
2022/03/11 06:50:12;;;;;;;12.68;6.05;;;8.60;99.90;;;;;;5076326;28;20193;-79
2022/03/11 06:52:38;;;;;;;20.77;6.80;;;8.70;99.90;;;;;;5074064;28;20171;-85
2022/03/11 06:55:04;;;;;;;10.65;6.07;;;8.60;99.90;;;;;;5074425;28;20323;-81
2022/03/11 06:57:34;;;;;;;71.05;10.60;;;8.80;99.90;;;;;;5074149;28;20201;-78
2022/03/11 07:00:00;;;;;;;102.80;9.30;;;8.70;99.90;;;;;;5055730;28;20245;-84
2022/03/11 07:02:26;;;;;;;17.98;7.07;;;8.80;99.90;;;;;;5073495;28;20190;-84
2022/03/11 07:04:52;;;;;;;8.65;6.38;;;8.80;99.90;;;;;;5074853;28;20627;-78
2022/03/11 07:07:17;;;;;;;14.75;6.22;;;9.00;99.90;;;;;;5074235;28;20165;-78
2022/03/11 07:09:43;;;;;;;17.25;6.80;;;9.10;99.90;;;;;;5056086;28;20163;-82
2022/03/11 07:12:08;;;;;;;11.90;6.20;;;9.00;99.90;;;;;;5074036;28;20269;-77
2022/03/11 07:14:35;;;;;;;20.52;7.15;;;9.00;99.90;;;;;;5073927;28;20167;-84
2022/03/11 07:17:04;;;;;;;13.77;7.45;;;9.10;99.90;;;;;;5073534;28;20189;-78
2022/03/11 07:19:30;;;;;;;23.38;7.30;;;9.20;99.90;;;;;;5073747;28;20556;-86
2022/03/11 07:21:58;;;;;;;43.78;7.10;;;9.30;99.90;;;;;;5073661;28;20246;-79
2022/03/11 07:24:24;;;;;;;24.85;7.47;;;9.30;99.90;;;;;;5055619;28;20174;-84
2022/03/11 07:26:49;;;;;;;14.25;6.40;;;9.40;99.90;;;;;;5073641;28;20187;-84
2022/03/11 07:29:15;;;;;;;11.60;6.93;;;9.40;99.90;;;;;;5073837;28;20178;-78
2022/03/11 07:31:41;;;;;;;9.27;7.25;;;9.30;99.90;;;;;;5074222;28;20194;-81
2022/03/11 07:34:06;;;;;;;22.65;7.68;;;9.40;99.90;;;;;;5057430;28;20175;-85
2022/03/11 07:36:34;;;;;;;16.33;6.68;;;9.50;99.90;;;;;;5074490;28;20202;-79
2022/03/11 07:39:10;;;;;;;10.52;5.80;;;9.60;99.90;;;;;;5073447;28;20202;-91
2022/03/11 07:41:36;;;;;;;11.25;5.70;;;9.50;99.90;;;;;;5073460;28;20173;-79
2022/03/11 07:44:02;;;;;;;10.85;5.75;;;9.50;99.90;;;;;;5073942;28;20166;-85
2022/03/11 07:46:29;;;;;;;9.60;6.88;;;9.50;99.90;;;;;;5073664;28;20189;-89
2022/03/11 07:48:55;;;;;;;13.80;6.20;;;9.70;99.90;;;;;;5073547;28;20171;-80
2022/03/11 07:51:21;;;;;;;15.52;8.05;;;9.70;99.90;;;;;;5074012;28;20693;-79
2022/03/11 07:53:47;;;;;;;12.40;6.43;;;9.60;99.90;;;;;;5071838;28;20178;-89
2022/03/11 07:56:14;;;;;;;13.27;7.45;;;9.60;99.90;;;;;;5057267;28;20279;-91
2022/03/11 07:58:41;;;;;;;9.80;7.82;;;9.60;99.90;;;;;;5075643;28;20190;-79
2022/03/11 08:01:08;;;;;;;10.65;5.68;;;9.80;99.90;;;;;;5073588;28;20162;-85
2022/03/11 08:03:37;;;;;;;12.20;6.63;;;9.90;99.90;;;;;;5074075;28;20178;-85
2022/03/11 08:06:04;;;;;;;14.75;6.40;;;9.90;99.90;;;;;;5072903;28;20190;-86
2022/03/11 08:08:30;;;;;;;14.48;7.20;;;9.90;99.90;;;;;;5072776;28;20166;-89
2022/03/11 08:10:56;;;;;;;11.68;6.35;;;9.90;99.90;;;;;;5073738;28;20166;-85
2022/03/11 08:13:22;;;;;;;19.27;7.38;;;10.00;99.90;;;;;;5066728;28;20224;-82
2022/03/11 08:15:47;;;;;;;8.23;5.88;;;10.10;99.90;;;;;;5069309;28;20197;-90
2022/03/11 08:18:13;;;;;;;12.50;6.45;;;10.20;99.90;;;;;;5084171;28;20609;-88
2022/03/11 08:20:39;;;;;;;14.80;7.28;;;10.20;99.90;;;;;;5062107;28;20169;-86
2022/03/11 08:23:04;;;;;;;9.80;6.75;;;10.40;99.90;;;;;;5092554;28;20180;-82
2022/03/11 08:25:31;;;;;;;22.00;7.40;;;10.40;99.90;;;;;;5089137;28;20550;-79
2022/03/11 08:27:57;;;;;;;24.15;7.13;;;10.50;99.90;;;;;;5068131;28;20186;-80
2022/03/11 08:30:25;;;;;;;13.43;6.75;;;10.60;99.90;;;;;;5078569;28;20170;-93
2022/03/11 08:32:52;;;;;;;41.80;8.82;;;10.60;99.90;;;;;;5081466;28;20155;-88
2022/03/11 08:35:18;;;;;;;12.65;6.50;;;10.70;99.90;;;;;;5081400;28;20196;-89
2022/03/11 08:37:44;;;;;;;12.77;6.45;;;10.90;99.90;;;;;;5081793;28;20166;-85
2022/03/11 08:40:11;;;;;;;13.52;6.55;;;10.90;99.90;;;;;;5081248;28;20249;-92
2022/03/11 08:42:37;;;;;;;13.20;6.93;;;11.10;99.90;;;;;;5080923;28;20676;-89
2022/03/11 08:45:04;;;;;;;14.10;7.13;;;11.20;99.90;;;;;;5080942;28;20158;-89
2022/03/11 08:47:30;;;;;;;15.60;7.60;;;11.30;99.90;;;;;;5081485;28;20170;-88
2022/03/11 08:49:58;;;;;;;16.30;7.18;;;11.40;99.90;;;;;;5080877;28;20179;-87
2022/03/11 08:52:28;;;;;;;11.27;6.95;;;11.50;99.90;;;;;;5081437;28;20257;-87
2022/03/11 08:54:54;;;;;;;17.60;6.75;;;11.60;99.90;;;;;;5078368;28;20178;-81
2022/03/11 08:57:19;;;;;;;17.17;7.97;;;11.70;99.90;;;;;;5078203;28;20177;-78
2022/03/11 08:59:45;;;;;;;12.60;6.50;;;11.80;99.90;;;;;;5076466;28;20261;-81
2022/03/11 09:02:13;;;;;;;7.68;6.25;;;11.80;99.90;;;;;;5058472;28;20261;-78
2022/03/11 09:04:38;;;;;;;7.28;5.97;;;12.00;99.90;;;;;;5076055;28;20182;-78
2022/03/11 09:07:04;;;;;;;8.52;6.60;;;12.10;99.90;;;;;;5078324;28;20183;-79
2022/03/11 09:09:32;;;;;;;11.07;6.35;;;12.10;99.90;;;;;;5077804;28;20166;-77
2022/03/11 09:11:58;;;;;;;18.45;7.65;;;12.10;99.90;;;;;;5079227;28;20171;-79
2022/03/11 09:14:24;;;;;;;11.50;6.80;;;12.40;99.90;;;;;;5078146;28;20174;-78
2022/03/11 09:16:49;;;;;;;11.65;7.25;;;12.50;99.90;;;;;;5077861;28;20183;-78
2022/03/11 09:19:17;;;;;;;19.77;7.35;;;12.60;99.90;;;;;;5089100;28;20670;-86
2022/03/11 09:21:43;;;;;;;18.70;6.47;;;12.70;99.90;;;;;;5096406;28;20218;-81
2022/03/11 09:24:09;;;;;;;19.05;8.10;;;12.70;99.90;;;;;;5091341;28;20185;-79
2022/03/11 09:26:36;;;;;;;18.95;6.93;;;12.80;99.90;;;;;;5076780;28;20229;-77
2022/03/11 09:29:03;;;;;;;15.52;7.32;;;12.80;99.90;;;;;;5073409;28;20537;-77
2022/03/11 09:31:29;;;;;;;11.57;6.47;;;12.80;99.90;;;;;;5074139;28;20174;-82
2022/03/11 09:33:54;;;;;;;41.53;7.03;;;12.80;99.90;;;;;;5067348;28;20175;-78
2022/03/11 09:36:35;;;;;;;14.45;6.78;;;12.90;99.90;;;;;;5075013;28;20186;-78
2022/03/11 09:39:08;;;;;;;14.00;6.60;;;12.80;99.90;;;;;;5069191;28;20206;-80
2022/03/11 09:41:39;;;;;;;12.45;6.70;;;12.90;99.90;;;;;;5059657;28;20166;-78
2022/03/11 09:44:05;;;;;;;9.75;5.70;;;13.10;99.90;;;;;;5076911;28;20208;-77
2022/03/11 09:46:33;;;;;;;16.67;6.22;;;13.10;99.90;;;;;;5083904;28;20205;-78
2022/03/11 09:49:03;;;;;;;8.43;5.95;;;13.10;99.90;;;;;;5065879;28;20224;-77
2022/03/11 09:51:29;;;;;;;9.55;6.57;;;13.10;99.90;;;;;;5087123;28;20213;-78
2022/03/11 09:53:56;;;;;;;13.32;5.95;;;13.20;99.90;;;;;;5080646;28;20170;-77
2022/03/11 09:56:23;;;;;;;5.75;5.07;;;13.30;99.90;;;;;;5082016;28;20274;-77
2022/03/11 09:58:49;;;;;;;13.43;5.80;;;13.30;99.90;;;;;;5081685;28;20206;-79
2022/03/11 10:01:15;;;;;;;18.75;5.95;;;13.40;99.90;;;;;;5080626;28;20208;-78
2022/03/11 10:03:41;;;;;;;16.73;6.63;;;13.50;99.90;;;;;;5081633;28;20255;-77
2022/03/11 10:06:06;;;;;;;10.82;5.93;;;13.50;99.90;;;;;;5080420;28;20194;-78
2022/03/11 10:08:35;;;;;;;13.95;5.90;;;13.50;99.90;;;;;;5062216;28;20170;-78
2022/03/11 10:11:24;;;;;;;18.25;6.22;;;13.60;99.90;;;;;;5079824;28;20635;-79
2022/03/11 10:14:03;;;;;;;7.93;6.15;;;13.60;99.90;;;;;;5079400;28;20235;-77
2022/03/11 10:16:32;;;;;;;16.08;5.63;;;13.60;99.90;;;;;;5055975;28;20247;-77
2022/03/11 10:19:15;;;;;;;14.75;6.13;;;13.60;99.90;;;;;;5075977;28;20206;-78
2022/03/11 10:21:45;;;;;;;18.20;6.57;;;13.60;99.90;;;;;;5058931;28;20162;-78
2022/03/11 10:24:19;;;;;;;12.63;5.75;;;13.70;99.90;;;;;;5076553;28;20178;-76
2022/03/11 10:26:46;;;;;;;27.58;6.15;;;13.80;99.90;;;;;;5056738;28;20201;-78
2022/03/11 10:29:15;;;;;;;8.63;5.15;;;13.70;99.90;;;;;;5075276;28;20220;-78
2022/03/11 10:31:43;;;;;;;24.70;4.57;;;13.70;99.90;;;;;;5073725;28;20220;-78
2022/03/11 10:34:28;;;;;;;5.57;5.07;;;13.80;99.90;;;;;;5054725;28;20167;-76
2022/03/11 10:36:58;;;;;;;7.15;5.45;;;13.80;99.90;;;;;;5072929;28;20293;-76
2022/03/11 10:39:29;;;;;;;12.20;5.82;;;14.00;99.90;;;;;;5073234;28;20209;-77
2022/03/11 10:42:14;;;;;;;10.38;5.88;;;14.10;99.90;;;;;;5073934;28;20170;-80
2022/03/11 10:44:52;;;;;;;7.03;5.80;;;14.20;99.90;;;;;;5055418;28;20895;-77
2022/03/11 10:47:20;;;;;;;12.65;5.57;;;14.20;99.90;;;;;;5070848;28;20184;-76
2022/03/11 10:49:54;;;;;;;17.67;6.10;;;14.30;99.90;;;;;;5073013;28;20181;-76
2022/03/11 10:52:31;;;;;;;6.82;5.13;;;14.40;99.90;;;;;;5073305;28;20240;-76
2022/03/11 10:54:58;;;;;;;10.40;5.50;;;14.40;99.90;;;;;;5072612;28;20779;-76
2022/03/11 10:57:38;;;;;;;6.07;5.32;;;14.40;99.90;;;;;;5074512;28;20175;-78
2022/03/11 11:00:23;;;;;;;8.05;4.82;;;14.60;99.90;;;;;;5065133;28;20665;-82
2022/03/11 11:02:51;;;;;;;16.67;5.68;;;14.60;99.90;;;;;;5088133;28;20170;-86
2022/03/11 11:05:17;;;;;;;13.43;5.68;;;14.70;99.90;;;;;;5088693;28;20186;-85
2022/03/11 11:07:44;;;;;;;12.27;5.25;;;14.60;99.90;;;;;;5087622;28;20202;-79
2022/03/11 11:10:17;;;;;;;11.38;5.45;;;14.70;99.90;;;;;;5085645;28;20166;-79
2022/03/11 11:12:44;;;;;;;6.20;5.13;;;14.70;99.90;;;;;;5085917;28;20188;-79
2022/03/11 11:15:13;;;;;;;5.97;5.00;;;14.70;99.90;;;;;;5087235;28;20187;-88
2022/03/11 11:17:40;;;;;;;16.77;4.43;;;14.80;99.90;;;;;;5071349;28;20174;-80
2022/03/11 11:20:32;;;;;;;4.65;4.18;;;14.80;99.90;;;;;;5063961;28;20213;-79
2022/03/11 11:23:03;;;;;;;10.43;4.55;;;14.90;99.90;;;;;;5055561;28;20186;-79
2022/03/11 11:25:31;;;;;;;12.38;4.13;;;15.00;99.90;;;;;;5086610;28;20198;-83
2022/03/11 11:28:20;;;;;;;5.13;4.40;;;15.00;99.90;;;;;;5067857;28;20242;-87
2022/03/11 11:30:51;;;;;;;7.50;3.90;;;15.10;99.90;;;;;;5072551;28;20174;-79
2022/03/11 11:33:18;;;;;;;5.15;3.88;;;15.10;99.90;;;;;;5080009;28;20210;-78
2022/03/11 11:35:45;;;;;;;7.35;3.88;;;15.10;99.90;;;;;;5067018;28;20199;-79
2022/03/11 11:38:29;;;;;;;12.65;3.75;;;15.10;99.90;;;;;;5078985;28;20202;-76
2022/03/11 11:40:58;;;;;;;8.50;3.65;;;15.20;99.90;;;;;;5079674;28;20224;-80
2022/03/11 11:43:30;;;;;;;8.75;4.82;;;15.20;99.90;;;;;;5060414;28;20174;-80
2022/03/11 11:46:06;;;;;;;5.35;3.85;;;15.30;99.90;;;;;;5078531;28;20261;-77
2022/03/11 11:48:31;;;;;;;18.42;4.47;;;15.30;99.90;;;;;;5061017;28;20223;-91
2022/03/11 11:50:58;;;;;;;16.58;3.95;;;15.40;99.90;;;;;;5079044;28;20639;-79
2022/03/11 11:53:34;;;;;;;15.10;4.13;;;15.50;99.90;;;;;;5082052;28;20238;-77
2022/03/11 11:56:00;;;;;;;16.85;3.70;;;15.50;99.90;;;;;;5082594;28;20193;-77
2022/03/11 11:58:25;;;;;;;4.30;3.35;;;15.50;99.90;;;;;;5088945;28;20206;-80
2022/03/11 12:00:55;;;;;;;15.10;3.60;;;15.60;99.90;;;;;;5086758;28;20197;-90
2022/03/11 12:03:48;;;;;;;18.63;3.40;;;15.70;99.90;;;;;;5065652;28;20174;-79
2022/03/11 12:06:55;;;;;;;5.03;3.13;;;15.80;99.90;;;;;;5081385;28;20305;-91
2022/03/11 12:12:25;;;;;;;3.60;3.08;;;16.00;99.90;;;;;;5084044;28;20170;-91
2022/03/11 12:15:06;;;;;;;7.10;3.22;;;16.00;99.90;;;;;;5086195;28;20219;-78
2022/03/11 12:17:47;;;;;;;8.15;2.78;;;16.10;99.90;;;;;;5085536;28;20174;-89
2022/03/11 12:20:49;;;;;;;5.93;3.50;;;16.20;99.90;;;;;;5083018;28;20532;-84
2022/03/11 12:23:17;;;;;;;11.95;3.13;;;16.30;99.90;;;;;;5079645;28;20170;-77
2022/03/11 12:26:06;;;;;;;4.30;2.78;;;16.30;99.90;;;;;;5066693;28;20195;-88
2022/03/11 12:28:35;;;;;;;3.90;2.50;;;16.20;99.90;;;;;;5082874;28;20166;-85
2022/03/11 12:31:09;;;;;;;3.90;2.90;;;16.30;99.90;;;;;;5084386;28;20263;-79
2022/03/11 12:33:46;;;;;;;6.50;3.47;;;16.40;99.90;;;;;;5084025;28;20166;-80
2022/03/11 12:36:20;;;;;;;7.55;3.05;;;16.40;99.90;;;;;;5066535;28;20204;-85
2022/03/11 12:38:47;;;;;;;7.13;2.88;;;16.50;99.90;;;;;;5080198;28;20260;-88
2022/03/11 12:41:21;;;;;;;20.23;3.65;;;16.50;99.90;;;;;;5081128;28;20167;-79
2022/03/11 12:43:48;;;;;;;6.30;3.03;;;16.50;99.90;;;;;;5082040;28;20170;-82
2022/03/11 12:46:14;;;;;;;12.23;3.10;;;16.50;99.90;;;;;;5089286;28;20186;-84
2022/03/11 12:48:42;;;;;;;59.00;4.85;;;16.60;99.90;;;;;;5087166;28;20622;-81
2022/03/11 12:51:17;;;;;;;21.73;2.97;;;16.50;99.90;;;;;;5084873;28;20243;-83
2022/03/11 12:53:44;;;;;;;9.65;2.78;;;16.50;99.90;;;;;;5075634;28;20161;-78
2022/03/11 12:56:10;;;;;;;7.53;3.28;;;16.50;99.90;;;;;;5077509;28;20243;-77